sensor_id;sensor_type;location;lat;lon;timestamp;P1;durP1;ratioP1;P2;durP2;ratioP2
2486;SDS011;1254;49.144;8.212;2023-04-24T00:00:06;2.97;;;2.72;;
2486;SDS011;1254;49.144;8.212;2023-04-24T00:02:35;2.45;;;1.95;;
2486;SDS011;1254;49.144;8.212;2023-04-24T00:05:06;4.30;;;2.88;;
2486;SDS011;1254;49.144;8.212;2023-04-24T00:07:35;3.10;;;2.80;;
2486;SDS011;1254;49.144;8.212;2023-04-24T00:10:03;3.30;;;2.65;;
2486;SDS011;1254;49.144;8.212;2023-04-24T00:12:32;3.15;;;2.60;;
2486;SDS011;1254;49.144;8.212;2023-04-24T00:15:00;3.30;;;3.00;;
2486;SDS011;1254;49.144;8.212;2023-04-24T00:17:28;2.60;;;2.40;;
2486;SDS011;1254;49.144;8.212;2023-04-24T00:19:57;2.60;;;2.40;;
2486;SDS011;1254;49.144;8.212;2023-04-24T00:22:26;2.55;;;2.10;;
2486;SDS011;1254;49.144;8.212;2023-04-24T00:24:55;6.38;;;2.10;;
2486;SDS011;1254;49.144;8.212;2023-04-24T00:27:24;4.05;;;2.85;;
2486;SDS011;1254;49.144;8.212;2023-04-24T00:29:52;4.10;;;2.25;;
2486;SDS011;1254;49.144;8.212;2023-04-24T00:32:20;1.83;;;1.73;;
2486;SDS011;1254;49.144;8.212;2023-04-24T00:34:48;2.78;;;2.28;;
2486;SDS011;1254;49.144;8.212;2023-04-24T00:37:17;5.32;;;2.50;;
2486;SDS011;1254;49.144;8.212;2023-04-24T00:39:47;4.55;;;2.78;;
2486;SDS011;1254;49.144;8.212;2023-04-24T00:42:15;3.25;;;2.20;;
2486;SDS011;1254;49.144;8.212;2023-04-24T00:44:43;2.05;;;1.85;;
2486;SDS011;1254;49.144;8.212;2023-04-24T00:47:11;2.47;;;1.90;;
2486;SDS011;1254;49.144;8.212;2023-04-24T00:49:40;1.90;;;1.80;;
2486;SDS011;1254;49.144;8.212;2023-04-24T00:52:11;2.92;;;2.63;;
2486;SDS011;1254;49.144;8.212;2023-04-24T00:54:43;3.08;;;2.20;;
2486;SDS011;1254;49.144;8.212;2023-04-24T00:57:13;1.95;;;1.85;;
2486;SDS011;1254;49.144;8.212;2023-04-24T00:59:42;2.65;;;2.45;;
2486;SDS011;1254;49.144;8.212;2023-04-24T01:02:10;2.70;;;2.28;;
2486;SDS011;1254;49.144;8.212;2023-04-24T01:04:39;2.15;;;2.05;;
2486;SDS011;1254;49.144;8.212;2023-04-24T01:07:07;6.43;;;2.28;;
2486;SDS011;1254;49.144;8.212;2023-04-24T01:09:37;3.90;;;2.28;;
2486;SDS011;1254;49.144;8.212;2023-04-24T01:12:07;2.80;;;2.15;;
2486;SDS011;1254;49.144;8.212;2023-04-24T01:14:38;2.47;;;2.28;;
2486;SDS011;1254;49.144;8.212;2023-04-24T01:17:08;2.92;;;2.15;;
2486;SDS011;1254;49.144;8.212;2023-04-24T01:19:37;2.83;;;1.85;;
2486;SDS011;1254;49.144;8.212;2023-04-24T01:22:09;2.15;;;1.95;;
2486;SDS011;1254;49.144;8.212;2023-04-24T01:24:38;3.63;;;2.25;;
2486;SDS011;1254;49.144;8.212;2023-04-24T01:27:07;2.33;;;2.17;;
2486;SDS011;1254;49.144;8.212;2023-04-24T01:29:35;3.50;;;2.08;;
2486;SDS011;1254;49.144;8.212;2023-04-24T01:32:04;3.65;;;2.28;;
2486;SDS011;1254;49.144;8.212;2023-04-24T01:34:32;3.53;;;2.20;;
2486;SDS011;1254;49.144;8.212;2023-04-24T01:37:01;2.13;;;1.80;;
2486;SDS011;1254;49.144;8.212;2023-04-24T01:39:32;2.05;;;1.95;;
2486;SDS011;1254;49.144;8.212;2023-04-24T01:42:00;3.40;;;2.10;;
2486;SDS011;1254;49.144;8.212;2023-04-24T01:44:29;2.05;;;1.70;;
2486;SDS011;1254;49.144;8.212;2023-04-24T01:46:58;3.38;;;2.00;;
2486;SDS011;1254;49.144;8.212;2023-04-24T01:49:28;2.83;;;1.90;;
2486;SDS011;1254;49.144;8.212;2023-04-24T01:51:56;2.10;;;1.90;;
2486;SDS011;1254;49.144;8.212;2023-04-24T01:54:25;2.15;;;1.98;;
2486;SDS011;1254;49.144;8.212;2023-04-24T01:56:54;3.20;;;2.00;;
2486;SDS011;1254;49.144;8.212;2023-04-24T01:59:22;1.85;;;1.70;;
2486;SDS011;1254;49.144;8.212;2023-04-24T02:01:51;2.08;;;1.90;;
2486;SDS011;1254;49.144;8.212;2023-04-24T02:04:19;1.80;;;1.70;;
2486;SDS011;1254;49.144;8.212;2023-04-24T02:06:47;1.83;;;1.73;;
2486;SDS011;1254;49.144;8.212;2023-04-24T02:09:15;2.00;;;1.90;;
2486;SDS011;1254;49.144;8.212;2023-04-24T02:11:44;4.20;;;2.08;;
2486;SDS011;1254;49.144;8.212;2023-04-24T02:14:13;1.88;;;1.67;;
2486;SDS011;1254;49.144;8.212;2023-04-24T02:16:42;2.30;;;1.80;;
2486;SDS011;1254;49.144;8.212;2023-04-24T02:19:10;4.30;;;1.90;;
2486;SDS011;1254;49.144;8.212;2023-04-24T02:21:38;1.95;;;1.80;;
2486;SDS011;1254;49.144;8.212;2023-04-24T02:24:08;2.35;;;2.17;;
2486;SDS011;1254;49.144;8.212;2023-04-24T02:26:36;2.00;;;1.90;;
2486;SDS011;1254;49.144;8.212;2023-04-24T02:29:04;2.22;;;2.03;;
2486;SDS011;1254;49.144;8.212;2023-04-24T02:31:34;2.90;;;1.73;;
2486;SDS011;1254;49.144;8.212;2023-04-24T02:34:02;6.47;;;2.00;;
2486;SDS011;1254;49.144;8.212;2023-04-24T02:36:31;2.20;;;1.83;;
2486;SDS011;1254;49.144;8.212;2023-04-24T02:38:59;4.90;;;2.40;;
2486;SDS011;1254;49.144;8.212;2023-04-24T02:41:28;5.13;;;2.40;;
2486;SDS011;1254;49.144;8.212;2023-04-24T02:43:58;2.45;;;2.30;;
2486;SDS011;1254;49.144;8.212;2023-04-24T02:46:26;8.27;;;3.08;;
2486;SDS011;1254;49.144;8.212;2023-04-24T02:52:58;4.00;;;3.08;;
2486;SDS011;1254;49.144;8.212;2023-04-24T02:55:26;3.92;;;3.60;;
2486;SDS011;1254;49.144;8.212;2023-04-24T02:57:54;3.83;;;3.30;;
2486;SDS011;1254;49.144;8.212;2023-04-24T03:00:22;6.20;;;3.90;;
2486;SDS011;1254;49.144;8.212;2023-04-24T03:02:51;3.67;;;3.38;;
2486;SDS011;1254;49.144;8.212;2023-04-24T03:05:19;3.95;;;3.47;;
2486;SDS011;1254;49.144;8.212;2023-04-24T03:07:47;4.25;;;3.95;;
2486;SDS011;1254;49.144;8.212;2023-04-24T03:10:17;9.60;;;4.38;;
2486;SDS011;1254;49.144;8.212;2023-04-24T03:12:45;3.90;;;3.60;;
2486;SDS011;1254;49.144;8.212;2023-04-24T03:15:13;7.60;;;4.22;;
2486;SDS011;1254;49.144;8.212;2023-04-24T03:17:42;3.35;;;3.15;;
2486;SDS011;1254;49.144;8.212;2023-04-24T03:20:10;3.45;;;3.25;;
2486;SDS011;1254;49.144;8.212;2023-04-24T03:22:38;4.88;;;4.47;;
2486;SDS011;1254;49.144;8.212;2023-04-24T03:25:08;3.70;;;3.40;;
2486;SDS011;1254;49.144;8.212;2023-04-24T03:27:38;3.45;;;3.25;;
2486;SDS011;1254;49.144;8.212;2023-04-24T03:30:35;3.17;;;2.90;;
2486;SDS011;1254;49.144;8.212;2023-04-24T03:33:06;4.32;;;4.03;;
2486;SDS011;1254;49.144;8.212;2023-04-24T03:35:39;5.03;;;3.50;;
2486;SDS011;1254;49.144;8.212;2023-04-24T03:38:10;4.10;;;3.80;;
2486;SDS011;1254;49.144;8.212;2023-04-24T03:40:53;4.10;;;3.80;;
2486;SDS011;1254;49.144;8.212;2023-04-24T03:43:42;3.25;;;3.15;;
2486;SDS011;1254;49.144;8.212;2023-04-24T03:46:10;4.05;;;3.75;;
2486;SDS011;1254;49.144;8.212;2023-04-24T03:48:43;10.45;;;3.45;;
2486;SDS011;1254;49.144;8.212;2023-04-24T03:51:12;3.60;;;3.40;;
2486;SDS011;1254;49.144;8.212;2023-04-24T03:53:44;7.20;;;4.05;;
2486;SDS011;1254;49.144;8.212;2023-04-24T03:56:16;2.90;;;2.65;;
2486;SDS011;1254;49.144;8.212;2023-04-24T03:58:45;3.67;;;2.55;;
2486;SDS011;1254;49.144;8.212;2023-04-24T04:01:13;3.45;;;2.70;;
2486;SDS011;1254;49.144;8.212;2023-04-24T04:03:54;3.67;;;2.90;;
2486;SDS011;1254;49.144;8.212;2023-04-24T04:06:24;2.70;;;2.50;;
2486;SDS011;1254;49.144;8.212;2023-04-24T04:08:54;3.03;;;2.80;;
2486;SDS011;1254;49.144;8.212;2023-04-24T04:11:23;2.80;;;2.60;;
2486;SDS011;1254;49.144;8.212;2023-04-24T04:13:53;2.67;;;2.58;;
2486;SDS011;1254;49.144;8.212;2023-04-24T04:16:22;3.00;;;2.80;;
2486;SDS011;1254;49.144;8.212;2023-04-24T04:18:54;3.22;;;3.03;;
2486;SDS011;1254;49.144;8.212;2023-04-24T04:21:22;8.30;;;3.90;;
2486;SDS011;1254;49.144;8.212;2023-04-24T04:23:56;4.65;;;4.35;;
2486;SDS011;1254;49.144;8.212;2023-04-24T04:26:31;3.78;;;3.25;;
2486;SDS011;1254;49.144;8.212;2023-04-24T04:29:04;3.30;;;3.10;;
2486;SDS011;1254;49.144;8.212;2023-04-24T04:31:35;6.00;;;4.30;;
2486;SDS011;1254;49.144;8.212;2023-04-24T04:34:08;6.28;;;4.60;;
2486;SDS011;1254;49.144;8.212;2023-04-24T04:36:38;4.97;;;4.25;;
2486;SDS011;1254;49.144;8.212;2023-04-24T04:39:29;4.80;;;4.15;;
2486;SDS011;1254;49.144;8.212;2023-04-24T04:42:03;4.22;;;3.92;;
2486;SDS011;1254;49.144;8.212;2023-04-24T04:44:40;4.88;;;3.65;;
2486;SDS011;1254;49.144;8.212;2023-04-24T04:47:12;6.47;;;4.50;;
2486;SDS011;1254;49.144;8.212;2023-04-24T04:49:42;4.63;;;4.22;;
2486;SDS011;1254;49.144;8.212;2023-04-24T04:52:23;4.80;;;4.43;;
2486;SDS011;1254;49.144;8.212;2023-04-24T04:54:58;5.32;;;4.80;;
2486;SDS011;1254;49.144;8.212;2023-04-24T04:57:43;4.75;;;4.35;;
2486;SDS011;1254;49.144;8.212;2023-04-24T05:00:13;4.80;;;4.50;;
2486;SDS011;1254;49.144;8.212;2023-04-24T05:02:48;6.75;;;4.75;;
2486;SDS011;1254;49.144;8.212;2023-04-24T05:05:17;5.95;;;4.65;;
2486;SDS011;1254;49.144;8.212;2023-04-24T05:07:45;5.47;;;4.97;;
2486;SDS011;1254;49.144;8.212;2023-04-24T05:10:14;4.57;;;4.18;;
2486;SDS011;1254;49.144;8.212;2023-04-24T05:12:42;5.05;;;4.55;;
2486;SDS011;1254;49.144;8.212;2023-04-24T05:15:12;5.65;;;4.55;;
2486;SDS011;1254;49.144;8.212;2023-04-24T05:17:40;5.20;;;4.78;;
2486;SDS011;1254;49.144;8.212;2023-04-24T05:20:10;5.43;;;4.95;;
2486;SDS011;1254;49.144;8.212;2023-04-24T05:22:38;5.38;;;4.97;;
2486;SDS011;1254;49.144;8.212;2023-04-24T05:25:07;5.40;;;4.90;;
2486;SDS011;1254;49.144;8.212;2023-04-24T05:27:40;4.68;;;4.38;;
2486;SDS011;1254;49.144;8.212;2023-04-24T05:30:15;5.70;;;4.95;;
2486;SDS011;1254;49.144;8.212;2023-04-24T05:32:44;7.00;;;4.85;;
2486;SDS011;1254;49.144;8.212;2023-04-24T05:35:13;6.55;;;4.57;;
2486;SDS011;1254;49.144;8.212;2023-04-24T05:37:41;5.50;;;4.55;;
2486;SDS011;1254;49.144;8.212;2023-04-24T05:40:10;6.57;;;4.50;;
2486;SDS011;1254;49.144;8.212;2023-04-24T05:42:39;4.65;;;4.25;;
2486;SDS011;1254;49.144;8.212;2023-04-24T05:45:08;4.10;;;3.90;;
2486;SDS011;1254;49.144;8.212;2023-04-24T05:47:43;4.53;;;4.22;;
2486;SDS011;1254;49.144;8.212;2023-04-24T05:50:11;3.80;;;3.50;;
2486;SDS011;1254;49.144;8.212;2023-04-24T05:52:40;4.18;;;3.88;;
2486;SDS011;1254;49.144;8.212;2023-04-24T05:55:22;3.90;;;3.70;;
2486;SDS011;1254;49.144;8.212;2023-04-24T05:57:51;4.43;;;4.13;;
2486;SDS011;1254;49.144;8.212;2023-04-24T06:00:19;4.50;;;4.10;;
2486;SDS011;1254;49.144;8.212;2023-04-24T06:02:59;4.53;;;4.13;;
2486;SDS011;1254;49.144;8.212;2023-04-24T06:05:30;4.93;;;4.43;;
2486;SDS011;1254;49.144;8.212;2023-04-24T06:07:58;4.60;;;4.30;;
2486;SDS011;1254;49.144;8.212;2023-04-24T06:10:32;3.83;;;3.55;;
2486;SDS011;1254;49.144;8.212;2023-04-24T06:13:00;3.97;;;3.60;;
2486;SDS011;1254;49.144;8.212;2023-04-24T06:15:30;4.20;;;3.90;;
2486;SDS011;1254;49.144;8.212;2023-04-24T06:18:05;4.70;;;4.30;;
2486;SDS011;1254;49.144;8.212;2023-04-24T06:20:36;4.53;;;3.75;;
2486;SDS011;1254;49.144;8.212;2023-04-24T06:23:04;4.05;;;3.75;;
2486;SDS011;1254;49.144;8.212;2023-04-24T06:25:33;4.63;;;4.07;;
2486;SDS011;1254;49.144;8.212;2023-04-24T06:28:01;4.10;;;3.80;;
2486;SDS011;1254;49.144;8.212;2023-04-24T06:30:30;4.70;;;4.40;;
2486;SDS011;1254;49.144;8.212;2023-04-24T06:32:58;4.32;;;3.92;;
2486;SDS011;1254;49.144;8.212;2023-04-24T06:35:28;3.78;;;3.47;;
2486;SDS011;1254;49.144;8.212;2023-04-24T06:37:56;3.50;;;3.20;;
2486;SDS011;1254;49.144;8.212;2023-04-24T06:40:24;4.45;;;3.45;;
2486;SDS011;1254;49.144;8.212;2023-04-24T06:42:54;3.38;;;3.08;;
2486;SDS011;1254;49.144;8.212;2023-04-24T06:45:23;3.53;;;3.05;;
2486;SDS011;1254;49.144;8.212;2023-04-24T06:47:52;3.53;;;3.00;;
2486;SDS011;1254;49.144;8.212;2023-04-24T06:50:20;2.85;;;2.65;;
2486;SDS011;1254;49.144;8.212;2023-04-24T06:52:50;2.75;;;2.55;;
2486;SDS011;1254;49.144;8.212;2023-04-24T06:55:18;3.17;;;2.20;;
2486;SDS011;1254;49.144;8.212;2023-04-24T06:57:46;2.30;;;2.20;;
2486;SDS011;1254;49.144;8.212;2023-04-24T07:00:14;2.28;;;1.73;;
2486;SDS011;1254;49.144;8.212;2023-04-24T07:02:43;3.15;;;1.80;;
2486;SDS011;1254;49.144;8.212;2023-04-24T07:05:11;2.38;;;1.98;;
2486;SDS011;1254;49.144;8.212;2023-04-24T07:07:41;2.00;;;1.77;;
2486;SDS011;1254;49.144;8.212;2023-04-24T07:10:11;2.08;;;1.98;;
2486;SDS011;1254;49.144;8.212;2023-04-24T07:12:40;1.90;;;1.80;;
2486;SDS011;1254;49.144;8.212;2023-04-24T07:15:09;3.08;;;2.80;;
2486;SDS011;1254;49.144;8.212;2023-04-24T07:17:37;2.03;;;1.92;;
2486;SDS011;1254;49.144;8.212;2023-04-24T07:20:09;2.20;;;2.03;;
2486;SDS011;1254;49.144;8.212;2023-04-24T07:22:38;2.08;;;1.98;;
2486;SDS011;1254;49.144;8.212;2023-04-24T07:25:06;2.97;;;2.67;;
2486;SDS011;1254;49.144;8.212;2023-04-24T07:27:36;2.75;;;2.30;;
2486;SDS011;1254;49.144;8.212;2023-04-24T07:30:05;2.58;;;2.35;;
2486;SDS011;1254;49.144;8.212;2023-04-24T07:32:34;3.15;;;1.98;;
2486;SDS011;1254;49.144;8.212;2023-04-24T07:35:02;2.58;;;2.38;;
2486;SDS011;1254;49.144;8.212;2023-04-24T07:37:30;2.60;;;2.50;;
2486;SDS011;1254;49.144;8.212;2023-04-24T07:39:59;2.85;;;2.00;;
2486;SDS011;1254;49.144;8.212;2023-04-24T07:42:27;2.30;;;2.20;;
2486;SDS011;1254;49.144;8.212;2023-04-24T07:44:58;2.90;;;2.08;;
2486;SDS011;1254;49.144;8.212;2023-04-24T07:47:26;1.95;;;1.80;;
2486;SDS011;1254;49.144;8.212;2023-04-24T07:49:55;2.00;;;1.90;;
2486;SDS011;1254;49.144;8.212;2023-04-24T07:52:23;2.15;;;2.05;;
2486;SDS011;1254;49.144;8.212;2023-04-24T07:54:51;1.92;;;1.83;;
2486;SDS011;1254;49.144;8.212;2023-04-24T07:57:24;1.85;;;1.75;;
2486;SDS011;1254;49.144;8.212;2023-04-24T07:59:52;1.95;;;1.85;;
2486;SDS011;1254;49.144;8.212;2023-04-24T08:02:22;2.03;;;1.60;;
2486;SDS011;1254;49.144;8.212;2023-04-24T08:04:52;4.40;;;2.03;;
2486;SDS011;1254;49.144;8.212;2023-04-24T08:07:20;1.83;;;1.73;;
2486;SDS011;1254;49.144;8.212;2023-04-24T08:09:49;1.80;;;1.70;;
2486;SDS011;1254;49.144;8.212;2023-04-24T08:12:17;2.47;;;2.28;;
2486;SDS011;1254;49.144;8.212;2023-04-24T08:14:45;2.05;;;1.95;;
2486;SDS011;1254;49.144;8.212;2023-04-24T08:17:13;1.95;;;1.85;;
2486;SDS011;1254;49.144;8.212;2023-04-24T08:19:43;2.40;;;2.30;;
2486;SDS011;1254;49.144;8.212;2023-04-24T08:22:14;2.65;;;2.55;;
2486;SDS011;1254;49.144;8.212;2023-04-24T08:24:42;2.58;;;2.38;;
2486;SDS011;1254;49.144;8.212;2023-04-24T08:27:11;3.15;;;3.05;;
2486;SDS011;1254;49.144;8.212;2023-04-24T08:29:39;2.70;;;2.60;;
2486;SDS011;1254;49.144;8.212;2023-04-24T08:32:07;3.33;;;3.20;;
2486;SDS011;1254;49.144;8.212;2023-04-24T08:34:35;4.13;;;3.00;;
2486;SDS011;1254;49.144;8.212;2023-04-24T08:37:05;2.88;;;2.78;;
2486;SDS011;1254;49.144;8.212;2023-04-24T08:39:33;3.30;;;3.00;;
2486;SDS011;1254;49.144;8.212;2023-04-24T08:42:01;3.28;;;2.97;;
2486;SDS011;1254;49.144;8.212;2023-04-24T08:44:34;3.23;;;3.03;;
2486;SDS011;1254;49.144;8.212;2023-04-24T08:47:04;3.33;;;3.23;;
2486;SDS011;1254;49.144;8.212;2023-04-24T08:49:32;4.20;;;3.80;;
2486;SDS011;1254;49.144;8.212;2023-04-24T08:52:01;3.50;;;3.40;;
2486;SDS011;1254;49.144;8.212;2023-04-24T08:54:31;3.90;;;3.70;;
2486;SDS011;1254;49.144;8.212;2023-04-24T08:57:00;3.25;;;3.15;;
2486;SDS011;1254;49.144;8.212;2023-04-24T08:59:29;2.78;;;2.58;;
2486;SDS011;1254;49.144;8.212;2023-04-24T09:01:58;3.10;;;2.90;;
2486;SDS011;1254;49.144;8.212;2023-04-24T09:04:26;4.00;;;3.70;;
2486;SDS011;1254;49.144;8.212;2023-04-24T09:06:57;3.63;;;3.42;;
2486;SDS011;1254;49.144;8.212;2023-04-24T09:09:25;3.35;;;3.15;;
2486;SDS011;1254;49.144;8.212;2023-04-24T09:11:55;3.63;;;3.33;;
2486;SDS011;1254;49.144;8.212;2023-04-24T09:14:23;3.95;;;3.75;;
2486;SDS011;1254;49.144;8.212;2023-04-24T09:16:51;4.88;;;4.20;;
2486;SDS011;1254;49.144;8.212;2023-04-24T09:19:19;4.20;;;4.00;;
2486;SDS011;1254;49.144;8.212;2023-04-24T09:21:48;4.20;;;4.00;;
2486;SDS011;1254;49.144;8.212;2023-04-24T09:24:17;4.60;;;4.30;;
2486;SDS011;1254;49.144;8.212;2023-04-24T09:26:49;6.03;;;4.78;;
2486;SDS011;1254;49.144;8.212;2023-04-24T09:29:18;4.22;;;4.03;;
2486;SDS011;1254;49.144;8.212;2023-04-24T09:31:46;3.90;;;3.70;;
2486;SDS011;1254;49.144;8.212;2023-04-24T09:34:18;6.80;;;3.80;;
2486;SDS011;1254;49.144;8.212;2023-04-24T09:36:48;3.33;;;3.10;;
2486;SDS011;1254;49.144;8.212;2023-04-24T09:39:17;3.67;;;3.47;;
2486;SDS011;1254;49.144;8.212;2023-04-24T09:41:46;4.53;;;3.72;;
2486;SDS011;1254;49.144;8.212;2023-04-24T09:44:15;4.93;;;4.63;;
2486;SDS011;1254;49.144;8.212;2023-04-24T09:46:45;4.43;;;4.03;;
2486;SDS011;1254;49.144;8.212;2023-04-24T09:49:15;5.05;;;4.65;;
2486;SDS011;1254;49.144;8.212;2023-04-24T09:51:43;5.80;;;4.30;;
2486;SDS011;1254;49.144;8.212;2023-04-24T09:54:15;4.60;;;4.30;;
2486;SDS011;1254;49.144;8.212;2023-04-24T09:56:44;4.80;;;4.60;;
2486;SDS011;1254;49.144;8.212;2023-04-24T09:59:13;5.50;;;5.00;;
2486;SDS011;1254;49.144;8.212;2023-04-24T10:01:42;5.18;;;4.88;;
2486;SDS011;1254;49.144;8.212;2023-04-24T10:04:18;4.40;;;4.10;;
2486;SDS011;1254;49.144;8.212;2023-04-24T10:06:47;5.05;;;4.75;;
2486;SDS011;1254;49.144;8.212;2023-04-24T10:09:16;5.50;;;5.00;;
2486;SDS011;1254;49.144;8.212;2023-04-24T10:11:45;5.32;;;4.82;;
2486;SDS011;1254;49.144;8.212;2023-04-24T10:14:14;4.38;;;4.05;;
2486;SDS011;1254;49.144;8.212;2023-04-24T10:16:43;6.63;;;4.43;;
2486;SDS011;1254;49.144;8.212;2023-04-24T10:19:12;4.80;;;4.40;;
2486;SDS011;1254;49.144;8.212;2023-04-24T10:21:43;3.63;;;3.42;;
2486;SDS011;1254;49.144;8.212;2023-04-24T10:24:12;5.53;;;3.88;;
2486;SDS011;1254;49.144;8.212;2023-04-24T10:26:41;3.63;;;3.42;;
2486;SDS011;1254;49.144;8.212;2023-04-24T10:29:10;6.93;;;4.20;;
2486;SDS011;1254;49.144;8.212;2023-04-24T10:31:38;4.00;;;3.70;;
2486;SDS011;1254;49.144;8.212;2023-04-24T10:34:08;4.20;;;4.00;;
2486;SDS011;1254;49.144;8.212;2023-04-24T10:36:38;3.50;;;3.30;;
2486;SDS011;1254;49.144;8.212;2023-04-24T10:39:10;4.95;;;3.95;;
2486;SDS011;1254;49.144;8.212;2023-04-24T10:41:38;4.47;;;4.18;;
2486;SDS011;1254;49.144;8.212;2023-04-24T10:44:07;4.60;;;4.15;;
2486;SDS011;1254;49.144;8.212;2023-04-24T10:46:35;4.60;;;4.35;;
2486;SDS011;1254;49.144;8.212;2023-04-24T10:49:04;5.38;;;5.07;;
2486;SDS011;1254;49.144;8.212;2023-04-24T10:51:47;5.55;;;5.15;;
2486;SDS011;1254;49.144;8.212;2023-04-24T10:54:23;4.97;;;4.57;;
2486;SDS011;1254;49.144;8.212;2023-04-24T10:56:52;4.78;;;4.30;;
2486;SDS011;1254;49.144;8.212;2023-04-24T10:59:24;4.97;;;4.57;;
2486;SDS011;1254;49.144;8.212;2023-04-24T11:01:53;4.03;;;3.60;;
2486;SDS011;1254;49.144;8.212;2023-04-24T11:04:31;4.47;;;4.20;;
2486;SDS011;1254;49.144;8.212;2023-04-24T11:06:59;4.45;;;3.75;;
2486;SDS011;1254;49.144;8.212;2023-04-24T11:09:30;5.28;;;3.97;;
2486;SDS011;1254;49.144;8.212;2023-04-24T11:12:04;4.65;;;3.60;;
2486;SDS011;1254;49.144;8.212;2023-04-24T11:17:31;4.15;;;3.85;;
2486;SDS011;1254;49.144;8.212;2023-04-24T11:20:00;3.60;;;3.38;;
2486;SDS011;1254;49.144;8.212;2023-04-24T11:22:30;4.35;;;4.05;;
2486;SDS011;1254;49.144;8.212;2023-04-24T11:25:03;6.38;;;5.80;;
2486;SDS011;1254;49.144;8.212;2023-04-24T11:27:37;4.97;;;4.68;;
2486;SDS011;1254;49.144;8.212;2023-04-24T11:30:06;5.80;;;5.60;;
2486;SDS011;1254;49.144;8.212;2023-04-24T11:32:36;7.63;;;7.05;;
2486;SDS011;1254;49.144;8.212;2023-04-24T11:35:05;5.70;;;5.40;;
2486;SDS011;1254;49.144;8.212;2023-04-24T11:37:35;6.37;;;5.97;;
2486;SDS011;1254;49.144;8.212;2023-04-24T11:40:05;6.50;;;6.20;;
2486;SDS011;1254;49.144;8.212;2023-04-24T11:42:38;7.13;;;6.50;;
2486;SDS011;1254;49.144;8.212;2023-04-24T11:45:07;6.57;;;6.27;;
2486;SDS011;1254;49.144;8.212;2023-04-24T11:47:35;6.53;;;6.03;;
2486;SDS011;1254;49.144;8.212;2023-04-24T11:50:04;11.53;;;7.13;;
2486;SDS011;1254;49.144;8.212;2023-04-24T11:52:33;7.00;;;6.53;;
2486;SDS011;1254;49.144;8.212;2023-04-24T11:55:07;9.13;;;7.10;;
2486;SDS011;1254;49.144;8.212;2023-04-24T11:57:36;7.10;;;6.80;;
2486;SDS011;1254;49.144;8.212;2023-04-24T12:00:04;7.70;;;7.00;;
2486;SDS011;1254;49.144;8.212;2023-04-24T12:02:38;6.57;;;5.97;;
2486;SDS011;1254;49.144;8.212;2023-04-24T12:05:08;6.93;;;6.43;;
2486;SDS011;1254;49.144;8.212;2023-04-24T12:07:40;6.72;;;6.32;;
2486;SDS011;1254;49.144;8.212;2023-04-24T12:10:10;6.93;;;6.43;;
2486;SDS011;1254;49.144;8.212;2023-04-24T12:12:38;7.83;;;7.33;;
2486;SDS011;1254;49.144;8.212;2023-04-24T12:15:07;7.93;;;7.03;;
2486;SDS011;1254;49.144;8.212;2023-04-24T12:17:35;7.93;;;7.43;;
2486;SDS011;1254;49.144;8.212;2023-04-24T12:20:04;7.37;;;6.93;;
2486;SDS011;1254;49.144;8.212;2023-04-24T12:22:43;8.63;;;8.00;;
2486;SDS011;1254;49.144;8.212;2023-04-24T12:25:14;8.53;;;7.83;;
2486;SDS011;1254;49.144;8.212;2023-04-24T12:27:43;8.73;;;8.17;;
2486;SDS011;1254;49.144;8.212;2023-04-24T12:30:12;8.63;;;8.07;;
2486;SDS011;1254;49.144;8.212;2023-04-24T12:32:41;9.40;;;8.80;;
2486;SDS011;1254;49.144;8.212;2023-04-24T12:35:10;9.57;;;8.97;;
2486;SDS011;1254;49.144;8.212;2023-04-24T12:37:38;8.77;;;8.37;;
2486;SDS011;1254;49.144;8.212;2023-04-24T12:40:09;9.37;;;8.73;;
2486;SDS011;1254;49.144;8.212;2023-04-24T12:42:43;10.03;;;9.50;;
2486;SDS011;1254;49.144;8.212;2023-04-24T12:45:11;9.50;;;8.90;;
2486;SDS011;1254;49.144;8.212;2023-04-24T12:47:39;9.83;;;9.13;;
2486;SDS011;1254;49.144;8.212;2023-04-24T12:50:08;8.90;;;8.50;;
2486;SDS011;1254;49.144;8.212;2023-04-24T12:52:37;10.70;;;10.00;;
2486;SDS011;1254;49.144;8.212;2023-04-24T12:55:06;9.07;;;8.67;;
2486;SDS011;1254;49.144;8.212;2023-04-24T12:57:35;10.70;;;9.90;;
2486;SDS011;1254;49.144;8.212;2023-04-24T13:00:05;20.07;;;18.17;;
2486;SDS011;1254;49.144;8.212;2023-04-24T13:02:34;9.80;;;9.10;;
2486;SDS011;1254;49.144;8.212;2023-04-24T13:05:02;14.00;;;12.90;;
2486;SDS011;1254;49.144;8.212;2023-04-24T13:07:32;12.73;;;12.03;;
2486;SDS011;1254;49.144;8.212;2023-04-24T13:10:01;13.17;;;12.43;;
2486;SDS011;1254;49.144;8.212;2023-04-24T13:12:29;12.67;;;12.07;;
2486;SDS011;1254;49.144;8.212;2023-04-24T13:14:58;13.43;;;12.33;;
2486;SDS011;1254;49.144;8.212;2023-04-24T13:17:27;12.37;;;11.50;;
2486;SDS011;1254;49.144;8.212;2023-04-24T13:19:56;11.83;;;11.23;;
2486;SDS011;1254;49.144;8.212;2023-04-24T13:22:24;14.70;;;13.90;;
2486;SDS011;1254;49.144;8.212;2023-04-24T13:24:53;13.57;;;12.87;;
2486;SDS011;1254;49.144;8.212;2023-04-24T13:27:22;11.57;;;10.87;;
2486;SDS011;1254;49.144;8.212;2023-04-24T13:29:50;12.10;;;11.37;;
2486;SDS011;1254;49.144;8.212;2023-04-24T13:32:18;10.97;;;10.37;;
2486;SDS011;1254;49.144;8.212;2023-04-24T13:34:48;12.70;;;11.83;;
2486;SDS011;1254;49.144;8.212;2023-04-24T13:37:16;11.53;;;10.80;;
2486;SDS011;1254;49.144;8.212;2023-04-24T13:39:45;11.40;;;10.67;;
2486;SDS011;1254;49.144;8.212;2023-04-24T13:42:13;10.40;;;9.90;;
2486;SDS011;1254;49.144;8.212;2023-04-24T13:44:41;9.70;;;9.30;;
2486;SDS011;1254;49.144;8.212;2023-04-24T13:47:09;9.23;;;8.83;;
2486;SDS011;1254;49.144;8.212;2023-04-24T13:49:37;9.47;;;8.97;;
2486;SDS011;1254;49.144;8.212;2023-04-24T13:52:07;11.17;;;10.57;;
2486;SDS011;1254;49.144;8.212;2023-04-24T13:54:36;10.77;;;10.27;;
2486;SDS011;1254;49.144;8.212;2023-04-24T13:57:04;11.63;;;11.10;;
2486;SDS011;1254;49.144;8.212;2023-04-24T13:59:32;10.40;;;10.00;;
2486;SDS011;1254;49.144;8.212;2023-04-24T14:02:01;11.27;;;10.60;;
2486;SDS011;1254;49.144;8.212;2023-04-24T14:04:29;11.30;;;10.70;;
2486;SDS011;1254;49.144;8.212;2023-04-24T14:06:57;11.23;;;10.70;;
2486;SDS011;1254;49.144;8.212;2023-04-24T14:09:27;12.07;;;11.40;;
2486;SDS011;1254;49.144;8.212;2023-04-24T14:11:55;11.17;;;10.50;;
2486;SDS011;1254;49.144;8.212;2023-04-24T14:14:23;11.80;;;11.20;;
2486;SDS011;1254;49.144;8.212;2023-04-24T14:16:51;11.30;;;10.50;;
2486;SDS011;1254;49.144;8.212;2023-04-24T14:19:19;11.10;;;10.40;;
2486;SDS011;1254;49.144;8.212;2023-04-24T14:21:48;10.50;;;10.00;;
2486;SDS011;1254;49.144;8.212;2023-04-24T14:24:16;10.73;;;10.23;;
2486;SDS011;1254;49.144;8.212;2023-04-24T14:26:46;10.10;;;9.70;;
2486;SDS011;1254;49.144;8.212;2023-04-24T14:29:14;11.03;;;10.53;;
2486;SDS011;1254;49.144;8.212;2023-04-24T14:31:42;11.10;;;10.60;;
2486;SDS011;1254;49.144;8.212;2023-04-24T14:34:11;10.93;;;10.43;;
2486;SDS011;1254;49.144;8.212;2023-04-24T14:36:39;11.33;;;10.63;;
2486;SDS011;1254;49.144;8.212;2023-04-24T14:39:07;11.10;;;10.17;;
2486;SDS011;1254;49.144;8.212;2023-04-24T14:41:36;11.50;;;10.83;;
2486;SDS011;1254;49.144;8.212;2023-04-24T14:44:06;11.27;;;10.53;;
2486;SDS011;1254;49.144;8.212;2023-04-24T14:46:35;11.10;;;10.50;;
2486;SDS011;1254;49.144;8.212;2023-04-24T14:49:03;11.17;;;10.73;;
2486;SDS011;1254;49.144;8.212;2023-04-24T14:51:31;11.17;;;10.57;;
2486;SDS011;1254;49.144;8.212;2023-04-24T14:53:59;12.23;;;11.17;;
2486;SDS011;1254;49.144;8.212;2023-04-24T14:56:28;11.27;;;10.67;;
2486;SDS011;1254;49.144;8.212;2023-04-24T14:58:57;11.93;;;11.33;;
2486;SDS011;1254;49.144;8.212;2023-04-24T15:01:27;11.10;;;10.50;;
2486;SDS011;1254;49.144;8.212;2023-04-24T15:03:55;11.10;;;10.50;;
2486;SDS011;1254;49.144;8.212;2023-04-24T15:06:23;12.90;;;12.20;;
2486;SDS011;1254;49.144;8.212;2023-04-24T15:08:51;11.80;;;11.10;;
2486;SDS011;1254;49.144;8.212;2023-04-24T15:11:19;11.33;;;10.73;;
2486;SDS011;1254;49.144;8.212;2023-04-24T15:13:48;12.27;;;11.60;;
2486;SDS011;1254;49.144;8.212;2023-04-24T15:16:16;11.50;;;10.80;;
2486;SDS011;1254;49.144;8.212;2023-04-24T15:18:46;11.23;;;10.20;;
2486;SDS011;1254;49.144;8.212;2023-04-24T15:21:14;15.00;;;11.30;;
2486;SDS011;1254;49.144;8.212;2023-04-24T15:23:42;12.10;;;11.43;;
2486;SDS011;1254;49.144;8.212;2023-04-24T15:26:10;11.83;;;11.10;;
2486;SDS011;1254;49.144;8.212;2023-04-24T15:28:39;11.00;;;10.50;;
2486;SDS011;1254;49.144;8.212;2023-04-24T15:31:07;10.43;;;9.93;;